Fire Weather Observation
Issued by NWS Grand Junction, CO

Home | Current Version | Previous Version | Text Only | Print | Product List | Glossary Off
Versions: 1 2 3 4 5 6 7 8 9 10 11 12 13 14 15 16 17 18 19 20 21 22 23 24 25 26 27 28 29 30 31 32 33 34 35 36 37 38 39 40 41 42 43 44 45 46 47 48 49 50

000
SHUS65 KGJT 192013
FWOGJT

DAILY FIRE WEATHER OBSERVATION
NATIONAL WEATHER SERVICE GRAND JUNCTION CO
212 PM MDT TUE AUG 19 2014

STATE OF THE WEATHER (W)               2
DRY BULB TEMPERATURE                   73   DEGREES FAHRENHEIT
RELATIVE HUMIDITY (RH)                 55   PERCENT
LIGHTNING ACTIVITY LEVEL
  (LAL - MIDNIGHT TO 2 PM)             1
WIND DIRECTION                         315  DEGREES (C IF CALM)
WIND SPEED                             17   MPH
MAX TEMP (2 PM - 2 PM)                 94   DEGREES FAHRENHEIT
MIN TEMP (2 PM - 2 PM)                 62   DEGREES FAHRENHEIT
MAX RH (2 PM - 2 PM)                   84   PERCENT
MIN RH (2 PM - 2 PM)                   11   PERCENT
PCPN DURATION                          3.0  HOURS
PCPN AMT (2 PM - 2 PM)                 0.05 INCHES
LAL (2 PM - 2 PM)                      1

$$

METAR KGJT 191953Z 30015G22KT 10SM SCT070 BKN110 23/13 A2998 RMK
      AO2 SLP082 T02280133


USA.gov is the U.S. government's official web portal to all federal, state and local government web resources and services.